createdAt,value
2022-10-04T00:01:10.846Z,12.04
2022-10-04T00:03:46.147Z,12.09
2022-10-04T00:06:19.831Z,12.10
2022-10-04T00:08:52.911Z,12.06
2022-10-04T00:11:27.573Z,12.15
2022-10-04T00:14:00.141Z,11.97
2022-10-04T00:16:35.492Z,12.17
2022-10-04T00:19:26.482Z,12.21
2022-10-04T00:22:17.359Z,12.25
2022-10-04T00:25:23.163Z,12.28
2022-10-04T00:28:31.350Z,12.23
2022-10-04T00:31:19.686Z,12.19
2022-10-04T00:33:54.594Z,12.26
2022-10-04T00:36:41.754Z,12.30
2022-10-04T00:39:39.174Z,12.43
2022-10-04T00:42:21.724Z,12.43
2022-10-04T00:44:56.351Z,12.31
2022-10-04T00:47:32.026Z,12.39
2022-10-04T00:50:17.078Z,12.40
2022-10-04T00:52:51.707Z,12.43
2022-10-04T00:55:28.977Z,12.55
2022-10-04T00:58:02.414Z,12.48
2022-10-04T01:00:33.686Z,12.55
2022-10-04T01:03:08.050Z,12.54
2022-10-04T01:05:44.252Z,12.46
2022-10-04T01:08:16.553Z,12.54
2022-10-04T01:10:50.323Z,12.52
2022-10-04T01:13:26.627Z,12.53
2022-10-04T01:16:02.702Z,12.57
2022-10-04T01:18:34.911Z,12.56
2022-10-04T01:21:11.608Z,12.51
2022-10-04T01:23:46.210Z,12.46
2022-10-04T01:26:43.760Z,12.26
2022-10-04T01:29:16.916Z,12.27
2022-10-04T01:31:48.769Z,12.36
2022-10-04T01:34:20.703Z,12.34
2022-10-04T01:36:52.637Z,12.24
2022-10-04T01:39:27.615Z,12.32
2022-10-04T01:42:03.204Z,12.34
2022-10-04T01:44:39.714Z,12.46
2022-10-04T01:47:16.066Z,12.46
2022-10-04T01:49:48.583Z,12.51
2022-10-04T01:52:23.082Z,12.55
2022-10-04T01:55:03.596Z,12.73
2022-10-04T01:57:40.092Z,12.77
2022-10-04T02:00:14.353Z,12.75
2022-10-04T02:02:51.655Z,12.75
2022-10-04T02:05:29.894Z,12.69
2022-10-04T02:08:05.045Z,12.72
2022-10-04T02:10:43.412Z,12.64
2022-10-04T02:13:18.616Z,12.58
2022-10-04T02:15:49.435Z,12.73
2022-10-04T02:18:21.822Z,12.75
2022-10-04T02:20:53.967Z,12.72
2022-10-04T02:23:25.371Z,12.72
2022-10-04T02:25:57.951Z,12.70
2022-10-04T02:28:27.971Z,12.49
2022-10-04T02:31:10.384Z,12.34
2022-10-04T02:33:44.181Z,12.34
2022-10-04T02:36:14.649Z,12.28
2022-10-04T02:38:48.296Z,12.25
2022-10-04T02:41:29.751Z,12.47
2022-10-04T02:44:05.893Z,12.56
2022-10-04T02:46:39.494Z,12.50
2022-10-04T02:49:19.140Z,12.57
2022-10-04T02:51:54.383Z,12.41
2022-10-04T02:54:33.739Z,12.62
2022-10-04T02:57:06.520Z,12.61
2022-10-04T02:59:36.798Z,12.61
2022-10-04T03:02:29.068Z,12.59
2022-10-04T03:05:07.584Z,12.41
2022-10-04T03:07:38.972Z,12.46
2022-10-04T03:10:12.076Z,12.41
2022-10-04T03:12:45.153Z,12.46
2022-10-04T03:15:15.690Z,12.50
2022-10-04T03:17:46.897Z,12.33
2022-10-04T03:20:21.303Z,12.34
2022-10-04T03:22:56.065Z,12.37
2022-10-04T03:25:31.595Z,12.31
2022-10-04T03:28:05.784Z,12.35
2022-10-04T03:30:37.297Z,12.30
2022-10-04T03:33:08.238Z,12.29
2022-10-04T03:35:40.610Z,12.35
2022-10-04T03:38:14.147Z,12.38
2022-10-04T03:40:51.699Z,12.49
2022-10-04T03:43:27.495Z,12.43
2022-10-04T03:45:58.434Z,12.53
2022-10-04T03:48:37.979Z,12.59
2022-10-04T03:51:10.544Z,12.54
2022-10-04T03:53:43.431Z,12.44
2022-10-04T03:56:16.058Z,12.52
2022-10-04T03:58:49.275Z,12.35
2022-10-04T04:01:29.549Z,12.13
2022-10-04T04:04:05.686Z,12.34
2022-10-04T04:06:43.241Z,12.47
2022-10-04T04:09:23.991Z,12.48
2022-10-04T04:11:57.874Z,12.50
2022-10-04T04:14:31.045Z,12.48
2022-10-04T04:17:21.461Z,12.51
2022-10-04T04:19:51.261Z,12.52
2022-10-04T04:22:21.910Z,12.53
2022-10-04T04:24:52.429Z,12.50
2022-10-04T04:27:29.016Z,12.51
2022-10-04T04:30:04.156Z,12.51
2022-10-04T04:32:40.274Z,12.49
2022-10-04T04:35:25.114Z,12.21
2022-10-04T04:38:24.297Z,12.34
2022-10-04T04:40:55.799Z,12.38
2022-10-04T04:43:29.427Z,12.45
2022-10-04T04:46:26.210Z,12.38
2022-10-04T04:48:57.198Z,12.25
2022-10-04T04:51:27.790Z,12.34
2022-10-04T04:53:59.304Z,12.41
2022-10-04T04:56:32.952Z,12.50
2022-10-04T04:59:06.629Z,12.53
2022-10-04T05:01:45.000Z,12.52
2022-10-04T05:04:21.386Z,12.52
2022-10-04T05:07:02.263Z,12.57
2022-10-04T05:09:34.461Z,12.65
2022-10-04T05:12:11.308Z,12.47
2022-10-04T05:14:43.800Z,12.54
2022-10-04T05:17:23.034Z,12.45
2022-10-04T05:19:54.101Z,12.46
2022-10-04T05:22:26.883Z,12.49
2022-10-04T05:25:00.099Z,12.57
2022-10-04T05:27:33.371Z,12.64
2022-10-04T05:30:09.649Z,12.71
2022-10-04T05:32:51.460Z,12.71
2022-10-04T05:35:23.476Z,12.69
2022-10-04T05:38:05.123Z,12.47
2022-10-04T05:40:46.414Z,12.76
2022-10-04T05:43:34.784Z,12.70
2022-10-04T05:46:20.739Z,12.63
2022-10-04T05:48:56.952Z,12.72
2022-10-04T05:51:30.580Z,12.71
2022-10-04T05:54:02.802Z,12.69
2022-10-04T05:57:11.122Z,12.57
2022-10-04T06:00:03.351Z,12.76
2022-10-04T06:03:14.628Z,12.67
2022-10-04T06:05:52.787Z,12.58
2022-10-04T06:08:33.955Z,12.46
2022-10-04T06:11:17.662Z,12.43
2022-10-04T06:14:03.226Z,12.43
2022-10-04T06:16:56.610Z,12.52
2022-10-04T06:19:48.252Z,12.62
2022-10-04T06:22:23.385Z,12.67
2022-10-04T06:24:59.671Z,12.70
2022-10-04T06:27:36.074Z,12.57
2022-10-04T06:30:09.863Z,12.55
2022-10-04T06:32:56.251Z,12.49
2022-10-04T06:35:53.139Z,12.33
2022-10-04T06:38:50.958Z,12.33
2022-10-04T06:42:02.043Z,12.27
2022-10-04T06:44:51.449Z,12.43
2022-10-04T06:47:34.374Z,12.35
2022-10-04T06:50:22.827Z,12.28
2022-10-04T06:53:16.630Z,12.36
2022-10-04T06:56:22.073Z,12.27
2022-10-04T06:59:25.407Z,12.23
2022-10-04T07:02:00.039Z,12.34
2022-10-04T07:05:06.323Z,12.49
2022-10-04T07:07:38.803Z,12.51
2022-10-04T07:10:24.508Z,12.68
2022-10-04T07:13:07.289Z,12.81
2022-10-04T07:15:48.078Z,12.93
2022-10-04T07:18:26.973Z,13.02
2022-10-04T07:21:07.864Z,13.25
2022-10-04T07:23:43.113Z,13.14
2022-10-04T07:26:23.985Z,13.10
2022-10-04T07:29:09.454Z,13.20
2022-10-04T07:31:45.515Z,13.29
2022-10-04T07:34:21.088Z,13.46
2022-10-04T07:36:55.844Z,13.34
2022-10-04T07:39:30.725Z,13.41
2022-10-04T07:42:09.951Z,13.61
2022-10-04T07:44:43.604Z,13.59
2022-10-04T07:47:22.348Z,13.73
2022-10-04T07:49:54.075Z,13.76
2022-10-04T07:52:40.925Z,13.70
2022-10-04T07:55:21.450Z,13.65
2022-10-04T07:58:00.921Z,13.75
2022-10-04T08:00:39.623Z,13.56
2022-10-04T08:03:35.019Z,13.76
2022-10-04T08:06:17.605Z,13.50
2022-10-04T08:09:06.259Z,13.37
2022-10-04T08:11:50.150Z,13.81
2022-10-04T08:14:30.382Z,13.93
2022-10-04T08:17:20.017Z,13.83
2022-10-04T08:20:05.118Z,13.79
2022-10-04T08:22:45.716Z,13.92
2022-10-04T08:25:24.758Z,13.98
2022-10-04T08:28:18.669Z,13.81
2022-10-04T08:31:09.933Z,13.89
2022-10-04T08:33:59.169Z,13.73
2022-10-04T08:36:47.366Z,13.92
2022-10-04T08:39:44.756Z,13.83
2022-10-04T08:42:57.414Z,13.78
2022-10-04T08:46:10.063Z,13.95
2022-10-04T08:49:29.609Z,13.94
2022-10-04T08:52:32.049Z,13.81
2022-10-04T08:55:32.294Z,14.22
2022-10-04T08:58:18.453Z,14.46
2022-10-04T09:01:19.939Z,14.50
2022-10-04T09:04:32.014Z,14.73
2022-10-04T09:07:16.587Z,14.76
2022-10-04T09:10:24.229Z,14.81
2022-10-04T09:13:15.163Z,14.82
2022-10-04T09:15:56.684Z,14.93
2022-10-04T09:18:55.023Z,15.12
2022-10-04T09:21:38.238Z,15.23
2022-10-04T09:24:33.478Z,15.36
2022-10-04T09:27:43.274Z,15.45
2022-10-04T09:30:22.468Z,15.59
2022-10-04T09:33:18.040Z,15.59
2022-10-04T09:36:15.496Z,15.69
2022-10-04T09:39:31.178Z,15.77
2022-10-04T09:42:33.676Z,15.93
2022-10-04T09:45:28.055Z,15.91
2022-10-04T09:48:11.815Z,16.21
2022-10-04T09:51:11.356Z,16.21
2022-10-04T09:54:02.907Z,16.21
2022-10-04T09:56:53.294Z,16.41
2022-10-04T09:59:53.223Z,16.52
2022-10-04T10:02:59.394Z,16.62
2022-10-04T10:05:58.360Z,16.70
2022-10-04T10:08:37.899Z,16.76
2022-10-04T10:11:31.601Z,16.69
2022-10-04T10:14:38.446Z,16.68
2022-10-04T10:17:18.482Z,16.80
2022-10-04T10:20:16.773Z,16.76
2022-10-04T10:23:09.255Z,16.70
2022-10-04T10:25:53.557Z,16.75
2022-10-04T10:28:43.435Z,16.75
2022-10-04T10:31:31.369Z,16.59
2022-10-04T10:34:33.048Z,16.71
2022-10-04T10:37:15.536Z,16.77
2022-10-04T10:40:28.921Z,16.80
2022-10-04T10:43:22.524Z,16.78
2022-10-04T10:46:07.308Z,16.92
2022-10-04T10:48:55.423Z,16.95
2022-10-04T10:51:54.211Z,17.12
2022-10-04T10:54:52.635Z,17.33
2022-10-04T10:57:47.786Z,17.45
2022-10-04T11:00:24.128Z,17.49
2022-10-04T11:03:22.994Z,17.42
2022-10-04T11:06:38.915Z,17.61
2022-10-04T11:09:41.371Z,17.54
2022-10-04T11:12:55.391Z,17.75
2022-10-04T11:15:44.582Z,17.88
2022-10-04T11:18:45.321Z,18.05
2022-10-04T11:21:54.357Z,17.88
2022-10-04T11:24:45.066Z,18.22
2022-10-04T11:27:28.610Z,18.22
2022-10-04T11:30:17.331Z,18.04
2022-10-04T11:33:28.984Z,18.07
2022-10-04T11:36:25.978Z,18.07
2022-10-04T11:39:50.167Z,18.19
2022-10-04T11:42:38.404Z,18.11
2022-10-04T11:45:44.010Z,18.30
2022-10-04T11:48:32.292Z,18.40
2022-10-04T11:51:20.941Z,18.59
2022-10-04T11:54:18.170Z,18.51
2022-10-04T11:57:12.280Z,18.45
2022-10-04T11:59:52.395Z,18.64
2022-10-04T12:03:09.434Z,18.67
2022-10-04T12:06:11.150Z,18.78
2022-10-04T12:08:55.946Z,18.83
2022-10-04T12:12:10.866Z,18.73
2022-10-04T12:14:54.178Z,18.58
2022-10-04T12:17:55.792Z,18.77
2022-10-04T12:20:56.919Z,18.82
2022-10-04T12:23:57.374Z,18.67
2022-10-04T12:26:57.667Z,18.78
2022-10-04T12:30:03.146Z,18.85
2022-10-04T12:32:39.335Z,18.98
2022-10-04T12:35:23.177Z,18.98
2022-10-04T12:38:33.570Z,19.15
2022-10-04T12:41:13.739Z,19.11
2022-10-04T12:43:57.296Z,19.12
2022-10-04T12:46:40.969Z,18.99
2022-10-04T12:49:25.854Z,19.31
2022-10-04T12:52:01.855Z,19.24
2022-10-04T12:54:47.509Z,19.26
2022-10-04T12:57:31.399Z,19.38
2022-10-04T13:00:07.980Z,19.33
2022-10-04T13:03:05.209Z,19.50
2022-10-04T13:05:44.058Z,19.58
2022-10-04T13:08:25.158Z,19.62
2022-10-04T13:11:11.719Z,19.57
2022-10-04T13:14:01.554Z,19.31
2022-10-04T13:19:41.392Z,19.71
2022-10-04T13:22:55.324Z,19.73
2022-10-04T13:25:47.083Z,19.62
2022-10-04T13:28:32.041Z,19.66
2022-10-04T13:31:07.090Z,19.58
2022-10-04T13:33:46.530Z,19.63
2022-10-04T13:36:26.891Z,19.75
2022-10-04T13:39:24.940Z,19.66
2022-10-04T13:42:12.593Z,19.65
2022-10-04T13:44:58.956Z,19.54
2022-10-04T13:47:49.178Z,19.33
2022-10-04T13:50:44.135Z,19.63
2022-10-04T13:53:49.561Z,19.66
2022-10-04T13:56:49.462Z,19.66
2022-10-04T13:59:34.598Z,19.72
2022-10-04T14:02:47.808Z,19.67
2022-10-04T14:05:56.403Z,19.55
2022-10-04T14:08:54.784Z,19.57
2022-10-04T14:11:46.256Z,19.73
2022-10-04T14:14:43.007Z,19.64
2022-10-04T14:17:52.961Z,19.65
2022-10-04T14:20:58.086Z,19.66
2022-10-04T14:24:02.758Z,19.66
2022-10-04T14:27:04.473Z,19.75
2022-10-04T14:30:08.077Z,19.71
2022-10-04T14:33:10.590Z,19.56
2022-10-04T14:35:48.005Z,19.45
2022-10-04T14:38:57.589Z,19.62
2022-10-04T14:41:59.327Z,19.49
2022-10-04T14:45:04.830Z,19.61
2022-10-04T14:48:04.549Z,19.53
2022-10-04T14:50:48.142Z,19.56
2022-10-04T14:53:27.655Z,19.52
2022-10-04T14:56:14.716Z,19.60
2022-10-04T14:59:01.663Z,19.74
2022-10-04T15:01:36.195Z,19.63
2022-10-04T15:04:19.627Z,19.57
2022-10-04T15:06:53.535Z,19.39
2022-10-04T15:09:34.159Z,19.42
2022-10-04T15:12:52.050Z,19.26
2022-10-04T15:15:36.573Z,19.33
2022-10-04T15:18:26.388Z,19.38
2022-10-04T15:21:01.643Z,19.38
2022-10-04T15:23:38.819Z,19.42
2022-10-04T15:26:26.401Z,19.36
2022-10-04T15:29:07.891Z,19.37
2022-10-04T15:31:52.858Z,19.38
2022-10-04T15:34:38.820Z,19.27
2022-10-04T15:37:25.445Z,19.11
2022-10-04T15:40:27.227Z,19.22
2022-10-04T15:43:12.359Z,19.24
2022-10-04T15:46:02.892Z,19.06
2022-10-04T15:48:51.878Z,19.04
2022-10-04T15:51:46.351Z,18.96
2022-10-04T15:54:44.719Z,19.01
2022-10-04T15:57:32.792Z,19.05
2022-10-04T16:00:15.431Z,18.88
2022-10-04T16:03:02.001Z,18.93
2022-10-04T16:05:40.188Z,18.85
2022-10-04T16:08:31.920Z,18.83
2022-10-04T16:11:27.691Z,18.80
2022-10-04T16:14:17.314Z,18.76
2022-10-04T16:17:14.485Z,18.66
2022-10-04T16:20:01.134Z,18.52
2022-10-04T16:22:32.923Z,18.41
2022-10-04T16:25:41.788Z,18.45
2022-10-04T16:28:25.827Z,18.35
2022-10-04T16:31:30.264Z,18.36
2022-10-04T16:34:07.208Z,18.34
2022-10-04T16:36:49.892Z,18.14
2022-10-04T16:39:49.721Z,18.21
2022-10-04T16:42:25.983Z,18.13
2022-10-04T16:45:02.745Z,17.97
2022-10-04T16:47:38.435Z,17.96
2022-10-04T16:50:14.109Z,17.87
2022-10-04T16:53:05.515Z,17.83
2022-10-04T16:55:53.916Z,17.69
2022-10-04T16:58:54.551Z,17.58
2022-10-04T17:02:00.374Z,17.45
2022-10-04T17:05:01.980Z,17.30
2022-10-04T17:07:45.709Z,16.97
2022-10-04T17:10:34.974Z,16.86
2022-10-04T17:13:23.591Z,16.66
2022-10-04T17:16:05.464Z,16.73
2022-10-04T17:18:47.156Z,16.72
2022-10-04T17:21:36.025Z,16.80
2022-10-04T17:24:22.702Z,16.74
2022-10-04T17:27:07.056Z,16.62
2022-10-04T17:29:51.635Z,16.46
2022-10-04T17:32:30.223Z,16.45
2022-10-04T17:35:16.617Z,16.31
2022-10-04T17:38:00.947Z,16.36
2022-10-04T17:40:46.167Z,16.24
2022-10-04T17:43:25.791Z,16.36
2022-10-04T17:46:09.716Z,16.27
2022-10-04T17:49:00.366Z,16.13
2022-10-04T17:51:56.656Z,15.95
2022-10-04T17:54:48.219Z,16.07
2022-10-04T17:57:30.957Z,15.80
2022-10-04T18:00:11.491Z,15.59
2022-10-04T18:03:19.408Z,15.79
2022-10-04T18:05:55.442Z,15.62
2022-10-04T18:08:44.757Z,15.48
2022-10-04T18:11:29.620Z,15.41
2022-10-04T18:14:05.358Z,15.59
2022-10-04T18:16:50.098Z,15.60
2022-10-04T18:19:40.188Z,15.58
2022-10-04T18:22:16.845Z,15.75
2022-10-04T18:24:48.308Z,15.71
2022-10-04T18:27:24.508Z,15.77
2022-10-04T18:30:10.628Z,15.66
2022-10-04T18:32:41.964Z,15.59
2022-10-04T18:35:26.741Z,15.48
2022-10-04T18:37:58.180Z,15.40
2022-10-04T18:40:34.895Z,15.33
2022-10-04T18:43:27.910Z,15.25
2022-10-04T18:46:04.494Z,15.25
2022-10-04T18:48:41.999Z,15.31
2022-10-04T18:51:27.097Z,15.02
2022-10-04T18:54:12.172Z,15.08
2022-10-04T18:56:53.025Z,15.12
2022-10-04T18:59:49.850Z,15.13
2022-10-04T19:02:31.379Z,15.07
2022-10-04T19:05:15.726Z,14.97
2022-10-04T19:07:52.810Z,15.10
2022-10-04T19:10:34.704Z,14.93
2022-10-04T19:13:23.279Z,14.93
2022-10-04T19:16:23.554Z,14.85
2022-10-04T19:19:04.319Z,14.73
2022-10-04T19:21:46.406Z,14.79
2022-10-04T19:24:37.265Z,14.52
2022-10-04T19:27:14.024Z,14.64
2022-10-04T19:29:59.632Z,14.68
2022-10-04T19:32:45.256Z,14.66
2022-10-04T19:35:29.096Z,14.43
2022-10-04T19:38:08.867Z,14.56
2022-10-04T19:40:48.622Z,14.55
2022-10-04T19:43:25.434Z,14.68
2022-10-04T19:46:11.791Z,14.49
2022-10-04T19:48:50.020Z,14.40
2022-10-04T19:51:29.935Z,14.60
2022-10-04T19:54:06.472Z,14.70
2022-10-04T19:56:42.785Z,14.39
2022-10-04T19:59:22.026Z,14.43
2022-10-04T20:01:53.129Z,14.38
2022-10-04T20:04:39.039Z,14.44
2022-10-04T20:07:23.654Z,14.32
2022-10-04T20:09:57.338Z,14.21
2022-10-04T20:12:40.236Z,14.15
2022-10-04T20:15:27.752Z,14.01
2022-10-04T20:17:59.040Z,14.07
2022-10-04T20:21:11.386Z,14.11
2022-10-04T20:23:56.680Z,14.17
2022-10-04T20:27:03.453Z,14.03
2022-10-04T20:30:08.835Z,13.87
2022-10-04T20:33:01.164Z,13.81
2022-10-04T20:36:09.764Z,13.94
2022-10-04T20:38:59.465Z,14.03
2022-10-04T20:41:59.121Z,14.10
2022-10-04T20:44:54.327Z,14.11
2022-10-04T20:47:40.925Z,14.14
2022-10-04T20:50:31.321Z,13.84
2022-10-04T20:53:06.095Z,14.06
2022-10-04T20:55:40.351Z,14.17
2022-10-04T20:58:28.427Z,14.05
2022-10-04T21:01:02.684Z,14.13
2022-10-04T21:03:33.578Z,14.04
2022-10-04T21:06:06.392Z,14.03
2022-10-04T21:08:37.648Z,14.21
2022-10-04T21:11:18.302Z,14.32
2022-10-04T21:13:56.516Z,14.24
2022-10-04T21:16:45.791Z,14.11
2022-10-04T21:19:47.467Z,13.85
2022-10-04T21:22:39.580Z,14.04
2022-10-04T21:25:32.110Z,13.95
2022-10-04T21:28:32.018Z,14.09
2022-10-04T21:31:06.605Z,13.78
2022-10-04T21:33:37.542Z,14.19
2022-10-04T21:36:08.743Z,14.22
2022-10-04T21:38:38.991Z,14.12
2022-10-04T21:41:09.260Z,14.15
2022-10-04T21:43:38.991Z,14.12
2022-10-04T21:46:12.249Z,13.92
2022-10-04T21:48:44.056Z,13.99
2022-10-04T21:51:13.767Z,14.11
2022-10-04T21:53:43.510Z,14.02
2022-10-04T21:56:13.230Z,14.10
2022-10-04T21:58:42.908Z,13.98
2022-10-04T22:01:15.438Z,14.05
2022-10-04T22:03:45.198Z,14.03
2022-10-04T22:06:15.023Z,14.07
2022-10-04T22:08:45.540Z,14.11
2022-10-04T22:11:15.866Z,14.09
2022-10-04T22:13:46.824Z,14.10
2022-10-04T22:16:19.185Z,14.12
2022-10-04T22:18:48.948Z,13.86
2022-10-04T22:21:18.656Z,13.87
2022-10-04T22:23:48.390Z,13.86
2022-10-04T22:26:19.860Z,13.90
2022-10-04T22:28:51.801Z,14.03
2022-10-04T22:31:28.178Z,13.90
2022-10-04T22:33:59.015Z,14.08
2022-10-04T22:36:40.118Z,13.98
2022-10-04T22:39:16.582Z,13.80
2022-10-04T22:41:48.832Z,13.86
2022-10-04T22:44:21.840Z,13.98
2022-10-04T22:46:55.620Z,13.96
2022-10-04T22:49:28.170Z,14.01
2022-10-04T22:52:00.139Z,14.04
2022-10-04T22:54:33.227Z,14.12
2022-10-04T22:57:03.059Z,14.11
2022-10-04T22:59:37.587Z,14.17
2022-10-04T23:02:16.130Z,14.14
2022-10-04T23:04:48.232Z,14.15
2022-10-04T23:07:18.024Z,14.09
2022-10-04T23:09:47.758Z,14.06
2022-10-04T23:12:17.707Z,14.03
2022-10-04T23:14:47.398Z,14.11
2022-10-04T23:17:26.167Z,13.60
2022-10-04T23:19:59.443Z,13.54
2022-10-04T23:22:31.630Z,13.56
2022-10-04T23:25:01.773Z,13.60
2022-10-04T23:27:32.013Z,13.51
2022-10-04T23:30:05.405Z,13.45
2022-10-04T23:32:37.774Z,13.52
2022-10-04T23:35:16.327Z,13.37
2022-10-04T23:37:46.067Z,13.26
2022-10-04T23:40:20.468Z,13.48
2022-10-04T23:42:53.715Z,13.51
2022-10-04T23:45:25.576Z,13.39
2022-10-04T23:48:01.035Z,13.61
2022-10-04T23:50:33.889Z,13.42
2022-10-04T23:53:06.582Z,13.50
2022-10-04T23:55:38.889Z,13.40
2022-10-04T23:58:17.344Z,13.42
